createdAt,value
2019-05-11T00:00:35.675Z,89.26
2019-05-11T00:03:39.573Z,89.25
2019-05-11T00:06:43.409Z,89.30
2019-05-11T00:09:57.636Z,89.40
2019-05-11T00:12:52.962Z,89.44
2019-05-11T00:15:56.933Z,89.53
2019-05-11T00:19:00.858Z,89.48
2019-05-11T00:22:04.843Z,89.50
2019-05-11T00:25:08.929Z,89.42
2019-05-11T00:28:12.814Z,89.55
2019-05-11T00:31:16.627Z,89.36
2019-05-11T00:34:20.470Z,89.44
2019-05-11T00:37:24.286Z,89.63
2019-05-11T00:40:28.270Z,89.89
2019-05-11T00:43:32.082Z,89.82
2019-05-11T00:46:36.061Z,90.01
2019-05-11T00:49:40.008Z,90.09
2019-05-11T00:52:43.883Z,90.24
2019-05-11T00:55:47.807Z,90.12
2019-05-11T00:58:51.756Z,90.10
2019-05-11T01:01:55.598Z,90.14
2019-05-11T01:04:59.502Z,90.17
2019-05-11T01:08:03.461Z,90.36
2019-05-11T01:11:07.273Z,90.37
2019-05-11T01:14:11.111Z,90.34
2019-05-11T01:17:14.999Z,90.55
2019-05-11T01:20:18.987Z,90.41
2019-05-11T01:23:22.885Z,90.55
2019-05-11T01:26:26.815Z,90.50
2019-05-11T01:29:30.704Z,90.27
2019-05-11T01:32:34.534Z,90.15
2019-05-11T01:35:38.378Z,89.93
2019-05-11T01:38:42.231Z,90.08
2019-05-11T01:41:46.073Z,90.22
2019-05-11T01:44:49.902Z,90.24
2019-05-11T01:47:53.755Z,90.20
2019-05-11T01:50:57.613Z,90.35
2019-05-11T01:54:01.433Z,90.44
2019-05-11T01:57:05.337Z,90.54
2019-05-11T02:00:11.000Z,90.53
2019-05-11T02:03:14.836Z,90.53
2019-05-11T02:06:18.818Z,90.67
2019-05-11T02:09:22.583Z,90.73
2019-05-11T02:12:26.390Z,90.78
2019-05-11T02:15:30.366Z,90.64
2019-05-11T02:18:34.202Z,90.99
2019-05-11T02:21:38.053Z,91.01
2019-05-11T02:24:41.974Z,90.83
2019-05-11T02:27:45.862Z,90.95
2019-05-11T02:30:49.686Z,91.16
2019-05-11T02:33:53.541Z,90.91
2019-05-11T02:36:57.394Z,90.89
2019-05-11T02:40:01.210Z,90.82
2019-05-11T02:43:05.111Z,90.82
2019-05-11T02:46:09.111Z,91.03
2019-05-11T02:49:13.052Z,90.95
2019-05-11T02:52:17.411Z,91.02
2019-05-11T02:55:21.229Z,90.83
2019-05-11T02:58:25.081Z,90.86
2019-05-11T03:01:28.967Z,91.07
2019-05-11T03:04:32.778Z,91.10
2019-05-11T03:07:36.599Z,91.09
2019-05-11T03:10:40.594Z,91.01
2019-05-11T03:13:44.373Z,91.06
2019-05-11T03:16:50.937Z,91.00
2019-05-11T03:19:54.762Z,91.10
2019-05-11T03:22:58.668Z,91.29
2019-05-11T03:26:02.580Z,91.51
2019-05-11T03:29:06.500Z,91.56
2019-05-11T03:32:10.421Z,91.49
2019-05-11T03:35:14.361Z,91.14
2019-05-11T03:38:18.169Z,91.00
2019-05-11T03:41:22.000Z,91.07
2019-05-11T03:44:25.821Z,90.91
2019-05-11T03:47:29.687Z,90.49
2019-05-11T03:50:33.511Z,90.86
2019-05-11T03:53:37.341Z,90.86
2019-05-11T03:56:41.167Z,90.97
2019-05-11T03:59:45.077Z,91.23
2019-05-11T04:02:48.997Z,91.45
2019-05-11T04:05:52.810Z,91.42
2019-05-11T04:08:56.926Z,91.57
2019-05-11T04:12:00.745Z,91.55
2019-05-11T04:15:04.836Z,91.59
2019-05-11T04:18:08.699Z,91.73
2019-05-11T04:21:12.526Z,91.51
2019-05-11T04:24:16.432Z,91.47
2019-05-11T04:27:20.372Z,91.45
2019-05-11T04:30:24.292Z,91.32
2019-05-11T04:33:32.571Z,91.73
2019-05-11T04:36:33.718Z,92.12
2019-05-11T04:39:37.549Z,92.06
2019-05-11T04:42:54.280Z,92.28
2019-05-11T04:45:47.113Z,92.35
2019-05-11T04:48:51.001Z,92.79
2019-05-11T04:51:54.992Z,92.87
2019-05-11T04:54:58.798Z,93.40
2019-05-11T04:58:02.744Z,93.63
2019-05-11T05:01:06.718Z,94.09
2019-05-11T05:04:14.585Z,94.48
2019-05-11T05:07:16.733Z,94.85
2019-05-11T05:10:22.401Z,95.16
2019-05-11T05:13:29.295Z,95.15
2019-05-11T05:16:31.981Z,95.08
2019-05-11T05:19:35.928Z,94.80
2019-05-11T05:22:39.717Z,94.36
2019-05-11T05:25:45.102Z,94.51
2019-05-11T05:28:48.994Z,94.29
2019-05-11T05:31:52.831Z,94.17
2019-05-11T05:34:56.649Z,94.30
2019-05-11T05:38:00.515Z,94.36
2019-05-11T05:41:04.314Z,94.34
2019-05-11T05:44:08.131Z,94.42
2019-05-11T05:47:12.043Z,94.38
2019-05-11T05:50:16.317Z,94.23
2019-05-11T05:53:20.134Z,94.19
2019-05-11T05:56:23.944Z,94.37
2019-05-11T05:59:27.752Z,94.34
2019-05-11T06:02:31.673Z,94.32
2019-05-11T06:05:35.482Z,94.53
2019-05-11T06:08:43.033Z,94.41
2019-05-11T06:11:44.930Z,94.08
2019-05-11T06:14:48.720Z,93.52
2019-05-11T06:17:52.645Z,92.90
2019-05-11T06:20:56.544Z,92.00
2019-05-11T06:24:06.278Z,90.61
2019-05-11T06:27:06.031Z,89.79
2019-05-11T06:30:10.395Z,88.41
2019-05-11T06:33:14.250Z,87.78
2019-05-11T06:36:18.148Z,87.16
2019-05-11T06:39:22.151Z,85.79
2019-05-11T06:42:25.986Z,84.88
2019-05-11T06:45:29.793Z,84.31
2019-05-11T06:48:33.765Z,83.50
2019-05-11T06:51:40.421Z,83.47
2019-05-11T06:54:43.269Z,82.34
2019-05-11T06:57:47.091Z,82.05
2019-05-11T07:00:50.900Z,81.52
2019-05-11T07:03:54.781Z,81.44
2019-05-11T07:06:58.582Z,78.82
2019-05-11T07:10:02.481Z,76.89
2019-05-11T07:13:06.280Z,77.45
2019-05-11T07:16:10.165Z,74.66
2019-05-11T07:19:13.965Z,71.63
2019-05-11T07:22:17.780Z,70.20
2019-05-11T07:25:21.578Z,72.86
2019-05-11T07:28:25.412Z,74.25
2019-05-11T07:31:29.268Z,70.17
2019-05-11T07:34:33.222Z,69.44
2019-05-11T07:37:38.530Z,70.24
2019-05-11T07:40:42.701Z,70.20
2019-05-11T07:43:48.494Z,72.37
2019-05-11T07:46:52.143Z,70.48
2019-05-11T07:49:57.898Z,70.62
2019-05-11T07:53:01.554Z,69.97
2019-05-11T07:56:05.473Z,68.89
2019-05-11T07:59:09.300Z,69.48
2019-05-11T08:02:13.120Z,68.44
2019-05-11T08:05:18.019Z,69.09
2019-05-11T08:08:25.113Z,67.58
2019-05-11T08:11:31.106Z,69.86
2019-05-11T08:14:33.217Z,67.86
2019-05-11T08:17:38.084Z,66.63
2019-05-11T08:20:42.026Z,66.17
2019-05-11T08:23:48.104Z,67.50
2019-05-11T08:26:51.401Z,67.44
2019-05-11T08:29:55.209Z,63.46
2019-05-11T08:32:59.059Z,63.80
2019-05-11T08:36:02.891Z,62.47
2019-05-11T08:39:07.939Z,62.63
2019-05-11T08:42:11.741Z,63.10
2019-05-11T08:45:23.668Z,61.76
2019-05-11T08:48:21.920Z,61.30
2019-05-11T08:51:27.886Z,60.97
2019-05-11T08:54:31.380Z,59.99
2019-05-11T08:57:35.190Z,56.13
2019-05-11T09:00:39.218Z,57.92
2019-05-11T09:03:43.001Z,59.97
2019-05-11T09:06:47.955Z,59.26
2019-05-11T09:09:51.968Z,58.67
2019-05-11T09:12:55.793Z,57.17
2019-05-11T09:15:59.608Z,57.74
2019-05-11T09:19:03.495Z,57.78
2019-05-11T09:22:08.314Z,56.93
2019-05-11T09:25:12.849Z,61.17
2019-05-11T09:28:18.063Z,59.16
2019-05-11T09:31:22.023Z,54.05
2019-05-11T09:34:29.025Z,54.51
2019-05-11T09:37:32.833Z,54.66
2019-05-11T09:40:38.556Z,53.25
2019-05-11T09:43:42.197Z,53.91
2019-05-11T09:46:47.791Z,51.68
2019-05-11T09:49:51.587Z,55.68
2019-05-11T09:52:55.417Z,55.24
2019-05-11T09:55:59.215Z,53.65
2019-05-11T09:59:03.029Z,53.49
2019-05-11T10:02:07.972Z,51.25
2019-05-11T10:05:12.044Z,54.27
2019-05-11T10:08:18.143Z,52.44
2019-05-11T10:11:21.373Z,50.36
2019-05-11T10:14:25.203Z,53.82
2019-05-11T10:17:29.007Z,53.65
2019-05-11T10:20:32.829Z,53.94
2019-05-11T10:23:38.241Z,53.84
2019-05-11T10:26:42.294Z,52.40
2019-05-11T10:29:48.348Z,54.21
2019-05-11T10:32:51.660Z,53.26
2019-05-11T10:35:55.580Z,52.71
2019-05-11T10:38:59.414Z,51.42
2019-05-11T10:42:03.282Z,50.77
2019-05-11T10:45:09.072Z,50.05
2019-05-11T10:48:13.123Z,49.12
2019-05-11T10:51:18.390Z,50.95
2019-05-11T10:54:22.361Z,49.27
2019-05-11T10:57:28.296Z,52.72
2019-05-11T11:00:31.872Z,50.84
2019-05-11T11:03:37.784Z,51.66
2019-05-11T11:06:41.289Z,51.14
2019-05-11T11:09:45.083Z,49.41
2019-05-11T11:12:49.243Z,50.84
2019-05-11T11:15:53.091Z,48.67
2019-05-11T11:18:58.825Z,48.18
2019-05-11T11:22:31.892Z,49.35
2019-05-11T11:25:08.634Z,50.45
2019-05-11T11:28:12.507Z,51.66
2019-05-11T11:31:18.559Z,48.64
2019-05-11T11:34:21.919Z,50.45
2019-05-11T11:37:27.948Z,45.15
2019-05-11T11:40:31.402Z,47.76
2019-05-11T11:43:37.603Z,48.58
2019-05-11T11:46:52.098Z,49.83
2019-05-11T11:49:47.600Z,47.00
2019-05-11T11:52:51.587Z,48.50
2019-05-11T11:55:55.395Z,48.03
2019-05-11T11:58:59.227Z,45.02
2019-05-11T12:02:03.156Z,49.11
2019-05-11T12:05:08.831Z,50.33
2019-05-11T12:08:12.819Z,49.50
2019-05-11T12:11:18.662Z,47.63
2019-05-11T12:14:22.279Z,48.58
2019-05-11T12:17:28.403Z,47.47
2019-05-11T12:20:31.809Z,47.59
2019-05-11T12:23:37.461Z,47.25
2019-05-11T12:26:41.176Z,47.06
2019-05-11T12:29:45.100Z,49.37
2019-05-11T12:32:50.315Z,50.75
2019-05-11T12:35:54.180Z,46.69
2019-05-11T12:38:58.160Z,48.31
2019-05-11T12:42:01.996Z,51.06
2019-05-11T12:45:07.529Z,47.13
2019-05-11T12:48:11.596Z,46.44
2019-05-11T12:51:15.506Z,43.17
2019-05-11T12:54:19.419Z,46.60
2019-05-11T12:57:23.246Z,45.13
2019-05-11T13:00:31.143Z,48.09
2019-05-11T13:03:33.373Z,46.50
2019-05-11T13:06:38.476Z,46.05
2019-05-11T13:09:42.591Z,46.23
2019-05-11T13:12:46.457Z,48.25
2019-05-11T13:15:50.274Z,47.69
2019-05-11T13:18:54.076Z,48.85
2019-05-11T13:21:58.967Z,48.02
2019-05-11T13:25:02.961Z,45.91
2019-05-11T13:28:08.557Z,47.88
2019-05-11T13:31:12.551Z,48.22
2019-05-11T13:34:17.951Z,48.99
2019-05-11T13:37:22.056Z,51.11
2019-05-11T13:40:27.692Z,48.71
2019-05-11T13:43:31.456Z,46.88
2019-05-11T13:46:35.261Z,49.56
2019-05-11T13:49:39.118Z,47.46
2019-05-11T13:52:42.949Z,45.08
2019-05-11T13:55:48.126Z,45.47
2019-05-11T13:58:52.102Z,46.79
2019-05-11T14:01:58.084Z,48.83
2019-05-11T14:05:01.567Z,48.24
2019-05-11T14:08:07.908Z,46.07
2019-05-11T14:11:11.053Z,47.12
2019-05-11T14:14:14.992Z,45.76
2019-05-11T14:17:18.827Z,46.50
2019-05-11T14:20:22.704Z,46.92
2019-05-11T14:23:29.105Z,45.93
2019-05-11T14:26:32.162Z,47.69
2019-05-11T14:29:37.910Z,45.79
2019-05-11T14:32:41.571Z,44.21
2019-05-11T14:35:45.394Z,46.87
2019-05-11T14:38:49.326Z,45.93
2019-05-11T14:41:53.138Z,47.93
2019-05-11T14:44:58.932Z,45.17
2019-05-11T14:48:02.548Z,45.83
2019-05-11T14:51:08.578Z,45.30
2019-05-11T14:54:12.116Z,46.81
2019-05-11T14:57:15.945Z,44.03
2019-05-11T15:00:19.943Z,42.89
2019-05-11T15:03:23.769Z,42.85
2019-05-11T15:06:27.998Z,41.27
2019-05-11T15:09:31.920Z,42.17
2019-05-11T15:12:37.857Z,41.23
2019-05-11T15:15:41.518Z,40.71
2019-05-11T15:18:45.346Z,38.64
2019-05-11T15:21:49.238Z,39.33
2019-05-11T15:24:53.144Z,41.66
2019-05-11T15:27:58.489Z,39.16
2019-05-11T15:31:02.464Z,38.83
2019-05-11T15:34:08.574Z,39.41
2019-05-11T15:37:12.037Z,39.90
2019-05-11T15:40:18.679Z,38.77
2019-05-11T15:43:22.653Z,39.39
2019-05-11T15:46:28.272Z,40.43
2019-05-11T15:49:32.286Z,37.47
2019-05-11T15:52:39.882Z,39.14
2019-05-11T15:55:42.487Z,39.59
2019-05-11T15:58:48.588Z,40.30
2019-05-11T16:01:54.618Z,38.61
2019-05-11T16:04:58.286Z,38.61
2019-05-11T16:08:02.247Z,40.15
2019-05-11T16:11:08.173Z,41.00
2019-05-11T16:14:11.716Z,42.93
2019-05-11T16:17:15.529Z,42.70
2019-05-11T16:20:20.022Z,42.03
2019-05-11T16:23:23.844Z,44.57
2019-05-11T16:26:28.209Z,47.09
2019-05-11T16:29:32.251Z,48.74
2019-05-11T16:32:38.412Z,48.19
2019-05-11T16:35:41.658Z,48.19
2019-05-11T16:38:45.573Z,47.38
2019-05-11T16:41:49.399Z,47.96
2019-05-11T16:44:53.257Z,49.64
2019-05-11T16:47:58.836Z,50.46
2019-05-11T16:51:02.694Z,49.15
2019-05-11T16:54:06.677Z,50.51
2019-05-11T16:57:10.619Z,52.71
2019-05-11T17:00:14.702Z,52.14
2019-05-11T17:03:18.688Z,53.15
2019-05-11T17:06:22.491Z,53.44
2019-05-11T17:09:26.467Z,54.41
2019-05-11T17:12:30.299Z,53.54
2019-05-11T17:15:34.199Z,52.24
2019-05-11T17:18:38.175Z,51.25
2019-05-11T17:21:42.019Z,54.34
2019-05-11T17:24:48.313Z,54.75
2019-05-11T17:27:51.477Z,54.48
2019-05-11T17:30:55.295Z,55.23
2019-05-11T17:33:59.177Z,56.27
2019-05-11T17:37:03.013Z,56.39
2019-05-11T17:40:09.062Z,56.39
2019-05-11T17:43:12.620Z,56.15
2019-05-11T17:46:18.476Z,56.52
2019-05-11T17:49:22.123Z,57.91
2019-05-11T17:52:28.112Z,57.23
2019-05-11T17:55:31.599Z,57.34
2019-05-11T17:58:37.724Z,57.58
2019-05-11T18:01:41.015Z,58.66
2019-05-11T18:04:44.860Z,59.10
2019-05-11T18:07:48.752Z,59.79
2019-05-11T18:10:52.657Z,59.66
2019-05-11T18:13:58.556Z,58.93
2019-05-11T18:17:02.152Z,59.16
2019-05-11T18:20:16.652Z,59.68
2019-05-11T18:23:11.991Z,59.27
2019-05-11T18:26:17.941Z,60.14
2019-05-11T18:29:21.460Z,60.54
2019-05-11T18:32:25.297Z,60.96
2019-05-11T18:35:29.106Z,60.36
2019-05-11T18:38:32.964Z,61.56
2019-05-11T18:41:39.099Z,61.39
2019-05-11T18:44:43.130Z,60.67
2019-05-11T18:47:48.877Z,61.68
2019-05-11T18:50:52.496Z,62.93
2019-05-11T18:53:58.466Z,62.85
2019-05-11T18:57:01.940Z,63.65
2019-05-11T19:00:08.266Z,62.40
2019-05-11T19:03:12.368Z,62.31
2019-05-11T19:06:18.446Z,63.03
2019-05-11T19:09:21.807Z,63.69
2019-05-11T19:12:27.668Z,64.01
2019-05-11T19:15:31.349Z,64.06
2019-05-11T19:18:35.151Z,65.32
2019-05-11T19:21:39.012Z,66.12
2019-05-11T19:24:42.829Z,66.48
2019-05-11T19:27:50.249Z,66.64
2019-05-11T19:30:52.288Z,67.05
2019-05-11T19:33:58.190Z,67.41
2019-05-11T19:37:01.811Z,67.55
2019-05-11T19:40:05.813Z,67.71
2019-05-11T19:43:09.705Z,68.43
2019-05-11T19:46:13.555Z,68.71
2019-05-11T19:49:18.970Z,69.03
2019-05-11T19:52:22.954Z,69.39
2019-05-11T19:55:28.559Z,69.52
2019-05-11T19:58:32.305Z,69.94
2019-05-11T20:01:36.208Z,69.98
2019-05-11T20:04:40.045Z,70.67
2019-05-11T20:07:43.854Z,71.21
2019-05-11T20:10:48.644Z,71.08
2019-05-11T20:13:52.637Z,70.85
2019-05-11T20:16:56.456Z,71.65
2019-05-11T20:20:01.146Z,71.93
2019-05-11T20:23:07.627Z,71.61
2019-05-11T20:26:10.757Z,72.51
2019-05-11T20:29:14.576Z,73.03
2019-05-11T20:32:18.795Z,72.43
2019-05-11T20:35:22.802Z,73.14
2019-05-11T20:38:27.894Z,72.83
2019-05-11T20:41:32.048Z,72.79
2019-05-11T20:44:37.872Z,73.52
2019-05-11T20:47:41.413Z,73.81
2019-05-11T20:50:45.283Z,74.11
2019-05-11T20:53:49.185Z,73.70
2019-05-11T20:56:53.002Z,73.80
2019-05-11T20:59:57.560Z,73.68
2019-05-11T21:03:01.640Z,74.57
2019-05-11T21:06:07.920Z,75.05
2019-05-11T21:09:11.085Z,74.90
2019-05-11T21:12:14.989Z,75.22
2019-05-11T21:15:18.929Z,75.60
2019-05-11T21:18:22.749Z,75.89
2019-05-11T21:21:27.879Z,76.25
2019-05-11T21:24:32.089Z,76.53
2019-05-11T21:27:38.138Z,76.43
2019-05-11T21:30:41.471Z,76.76
2019-05-11T21:33:45.371Z,77.30
2019-05-11T21:36:49.208Z,77.18
2019-05-11T21:39:53.050Z,77.63
2019-05-11T21:42:58.078Z,77.76
2019-05-11T21:46:02.098Z,77.91
2019-05-11T21:49:07.813Z,77.92
2019-05-11T21:52:11.457Z,77.99
2019-05-11T21:55:15.375Z,78.43
2019-05-11T21:58:19.230Z,78.38
2019-05-11T22:01:23.195Z,78.67
2019-05-11T22:04:28.486Z,78.87
2019-05-11T22:07:32.600Z,78.66
2019-05-11T22:10:38.468Z,79.16
2019-05-11T22:13:41.968Z,79.23
2019-05-11T22:16:47.898Z,79.55
2019-05-11T22:19:51.317Z,79.65
2019-05-11T22:22:55.137Z,79.75
2019-05-11T22:25:58.976Z,80.38
2019-05-11T22:29:02.803Z,80.82
2019-05-11T22:32:06.690Z,81.13
2019-05-11T22:35:10.673Z,81.43
2019-05-11T22:38:14.472Z,81.86
2019-05-11T22:41:18.291Z,82.06
2019-05-11T22:44:22.182Z,82.18
2019-05-11T22:47:28.253Z,82.46
2019-05-11T22:50:31.698Z,82.60
2019-05-11T22:53:44.657Z,82.78
2019-05-11T22:56:41.233Z,82.78
2019-05-11T22:59:45.140Z,82.95
2019-05-11T23:02:50.506Z,83.04
2019-05-11T23:05:54.412Z,83.05
2019-05-11T23:08:58.821Z,83.31
2019-05-11T23:12:02.790Z,83.44
2019-05-11T23:15:12.280Z,83.67
2019-05-11T23:18:18.034Z,83.82
2019-05-11T23:21:21.650Z,83.82
2019-05-11T23:24:28.568Z,83.60
2019-05-11T23:27:31.795Z,83.61
2019-05-11T23:30:35.727Z,83.53
2019-05-11T23:33:39.519Z,83.77
2019-05-11T23:36:43.357Z,83.70
2019-05-11T23:39:48.007Z,83.73
2019-05-11T23:42:51.975Z,83.48
2019-05-11T23:45:57.728Z,83.59
2019-05-11T23:49:01.325Z,84.04
2019-05-11T23:52:07.507Z,84.05
2019-05-11T23:55:10.974Z,83.81
2019-05-11T23:58:14.818Z,83.57
